Time;durP1;ratioP1;P1;durP2;ratioP2;P2;SDS_P1;SDS_P2;PMS_P1;PMS_P2;Temp;Humidity;BMP_temperature;BMP_pressure;BME280_temperature;BME280_humidity;BME280_pressure;Samples;Min_cycle;Max_cycle;Signal;HPM_P1;HPM_P2
2022/02/21 00:00:56;;;;;;;232.60;222.70;;;6.40;99.90;;;;;;4400545;32;20231;-66
2022/02/21 00:03:24;;;;;;;238.33;227.70;;;6.40;99.90;;;;;;4400280;32;20227;-62
2022/02/21 00:05:52;;;;;;;236.83;226.07;;;6.60;99.90;;;;;;4394951;32;20147;-64
2022/02/21 00:08:19;;;;;;;241.63;230.60;;;6.50;99.90;;;;;;4398150;32;20155;-65
2022/02/21 00:10:46;;;;;;;232.33;221.97;;;6.40;99.90;;;;;;4397607;32;20278;-63
2022/02/21 00:13:13;;;;;;;242.07;230.97;;;6.60;99.90;;;;;;4401998;32;20140;-63
2022/02/21 00:15:40;;;;;;;249.97;238.23;;;6.60;99.90;;;;;;4396401;32;20262;-64
2022/02/21 00:18:08;;;;;;;252.07;240.57;;;6.60;99.90;;;;;;4399948;32;20162;-65
2022/02/21 00:20:35;;;;;;;247.23;235.97;;;6.60;99.90;;;;;;4393022;32;20219;-66
2022/02/21 00:23:03;;;;;;;248.03;236.73;;;6.50;99.90;;;;;;4398139;32;20227;-65
2022/02/21 00:25:30;;;;;;;239.17;228.53;;;6.50;99.90;;;;;;4406512;32;20171;-65
2022/02/21 00:27:57;;;;;;;236.43;225.87;;;6.50;99.90;;;;;;4400374;32;20163;-65
2022/02/21 00:30:24;;;;;;;240.97;230.20;;;6.40;99.90;;;;;;4394736;32;20235;-64
2022/02/21 00:32:51;;;;;;;254.07;243.10;;;6.40;99.90;;;;;;4391641;32;20212;-67
2022/02/21 00:35:19;;;;;;;225.07;215.13;;;6.30;99.90;;;;;;4406106;32;20243;-65
2022/02/21 00:37:46;;;;;;;233.30;222.80;;;6.30;99.90;;;;;;4408030;32;20308;-64
2022/02/21 00:40:13;;;;;;;228.93;218.07;;;6.30;99.90;;;;;;4399799;32;20166;-64
2022/02/21 00:42:39;;;;;;;223.57;213.17;;;6.10;99.90;;;;;;4398305;32;20172;-64
2022/02/21 00:45:09;;;;;;;203.53;193.87;;;5.80;99.90;;;;;;4394010;32;20298;-66
2022/02/21 00:47:39;;;;;;;226.67;215.70;;;5.50;99.90;;;;;;4393356;32;20189;-63
2022/02/21 00:50:07;;;;;;;192.17;182.43;;;5.30;99.90;;;;;;4403133;32;20144;-64
2022/02/21 00:52:35;;;;;;;189.63;180.30;;;5.10;99.90;;;;;;4394225;32;20174;-64
2022/02/21 00:55:03;;;;;;;175.70;167.37;;;5.10;99.90;;;;;;4391658;32;20254;-64
2022/02/21 00:57:30;;;;;;;181.50;172.23;;;5.00;99.90;;;;;;4395762;32;20611;-64
2022/02/21 00:59:57;;;;;;;185.83;176.57;;;5.00;99.90;;;;;;4401166;32;20148;-64
2022/02/21 01:02:23;;;;;;;170.10;162.00;;;5.00;99.90;;;;;;4406410;32;20156;-64
2022/02/21 01:04:50;;;;;;;181.10;172.40;;;4.90;99.90;;;;;;4400804;32;20583;-64
2022/02/21 01:07:17;;;;;;;193.47;184.10;;;5.00;99.90;;;;;;4390995;32;20178;-63
2022/02/21 01:09:45;;;;;;;196.13;187.27;;;4.90;99.90;;;;;;4392611;32;20259;-63
2022/02/21 01:12:18;;;;;;;204.77;195.37;;;4.90;99.90;;;;;;4397355;32;20136;-63
2022/02/21 01:14:45;;;;;;;198.53;189.03;;;4.80;99.90;;;;;;4404995;32;20156;-63
2022/02/21 01:17:22;;;;;;;199.57;190.30;;;4.90;99.90;;;;;;4402301;32;20160;-64
2022/02/21 01:19:57;;;;;;;203.70;194.30;;;5.00;99.90;;;;;;4395150;32;20147;-64
2022/02/21 01:22:24;;;;;;;189.97;181.07;;;5.20;99.90;;;;;;4399168;32;20567;-64
2022/02/21 01:24:53;;;;;;;203.67;194.03;;;5.30;99.90;;;;;;4394095;32;20616;-66
2022/02/21 01:27:19;;;;;;;192.93;183.67;;;5.40;99.90;;;;;;4394548;32;20219;-63
2022/02/21 01:29:55;;;;;;;191.63;181.73;;;5.40;99.90;;;;;;4390810;32;20240;-66
2022/02/21 01:32:24;;;;;;;197.33;188.70;;;5.50;99.90;;;;;;4388743;32;20184;-64
2022/02/21 01:34:51;;;;;;;188.43;179.90;;;5.40;99.90;;;;;;4386597;32;20225;-65
2022/02/21 01:37:18;;;;;;;188.03;179.17;;;5.40;99.90;;;;;;4388716;32;20214;-65
2022/02/21 01:39:45;;;;;;;186.97;177.17;;;5.30;99.90;;;;;;4388532;32;20726;-65
2022/02/21 01:42:16;;;;;;;187.60;178.97;;;5.40;99.90;;;;;;4390991;32;20582;-63
2022/02/21 01:44:48;;;;;;;182.93;174.60;;;5.40;99.90;;;;;;4388022;32;20132;-65
2022/02/21 01:47:26;;;;;;;193.03;184.00;;;5.50;99.90;;;;;;4389551;32;20221;-65
2022/02/21 01:49:53;;;;;;;179.63;171.53;;;5.50;99.90;;;;;;4387608;32;20206;-63
2022/02/21 01:52:20;;;;;;;178.17;169.70;;;5.50;99.90;;;;;;4393499;32;20219;-65
2022/02/21 01:54:48;;;;;;;172.63;164.40;;;5.50;99.90;;;;;;4403437;32;20207;-66
2022/02/21 01:57:17;;;;;;;181.77;172.93;;;5.50;99.90;;;;;;4397521;32;20166;-66
2022/02/21 01:59:46;;;;;;;178.30;169.40;;;5.50;99.90;;;;;;4400962;32;20158;-64
2022/02/21 02:02:13;;;;;;;177.83;169.60;;;5.50;99.90;;;;;;4395872;32;20145;-65
2022/02/21 02:04:40;;;;;;;196.73;187.93;;;5.50;99.90;;;;;;4392297;32;20140;-66
2022/02/21 02:07:07;;;;;;;189.23;179.90;;;5.50;99.90;;;;;;4390707;32;20163;-65
2022/02/21 02:09:36;;;;;;;178.83;170.23;;;5.50;99.90;;;;;;4391094;32;20152;-64
2022/02/21 02:12:04;;;;;;;172.70;164.53;;;5.50;99.90;;;;;;4391109;32;20160;-65
2022/02/21 02:14:33;;;;;;;182.43;173.57;;;5.50;99.90;;;;;;4393737;32;20187;-64
2022/02/21 02:17:04;;;;;;;178.00;169.00;;;5.40;99.90;;;;;;4390070;32;20525;-64
2022/02/21 02:19:33;;;;;;;185.40;176.30;;;5.40;99.90;;;;;;4387902;32;20201;-64
2022/02/21 02:22:13;;;;;;;195.00;185.70;;;5.40;99.90;;;;;;4384915;32;20168;-65
2022/02/21 02:24:48;;;;;;;171.13;162.90;;;5.40;99.90;;;;;;4390521;32;20637;-64
2022/02/21 02:27:16;;;;;;;181.97;173.60;;;5.40;99.90;;;;;;4385779;32;20202;-65
2022/02/21 02:29:52;;;;;;;179.87;171.30;;;5.40;99.90;;;;;;4372974;32;20262;-66
2022/02/21 02:32:23;;;;;;;162.13;153.83;;;5.40;99.90;;;;;;4386596;32;20144;-64
2022/02/21 02:34:52;;;;;;;159.47;151.73;;;5.40;99.90;;;;;;4386764;32;20156;-65
2022/02/21 02:37:24;;;;;;;183.73;174.87;;;5.40;99.90;;;;;;4391304;32;20556;-64
2022/02/21 02:39:54;;;;;;;171.67;162.73;;;5.40;99.90;;;;;;4389873;32;20665;-64
2022/02/21 02:42:21;;;;;;;178.97;170.07;;;5.40;99.90;;;;;;4394549;32;20433;-63
2022/02/21 02:44:48;;;;;;;167.87;159.23;;;5.40;99.90;;;;;;4391184;32;20249;-66
2022/02/21 02:47:15;;;;;;;172.90;165.03;;;5.40;99.90;;;;;;4398046;32;20161;-65
2022/02/21 02:49:43;;;;;;;179.93;171.13;;;5.40;99.90;;;;;;4391525;32;20140;-63
2022/02/21 02:52:11;;;;;;;169.40;160.83;;;5.40;99.90;;;;;;4391669;32;20167;-64
2022/02/21 02:54:39;;;;;;;167.63;159.53;;;5.40;99.90;;;;;;4398276;32;20257;-66
2022/02/21 02:57:06;;;;;;;162.37;154.87;;;5.40;99.90;;;;;;4394677;32;20514;-64
2022/02/21 02:59:33;;;;;;;184.37;175.37;;;5.40;99.90;;;;;;4399298;32;20188;-66
2022/02/21 03:02:00;;;;;;;183.20;174.43;;;5.40;99.90;;;;;;4407444;32;20583;-64
2022/02/21 03:04:27;;;;;;;174.07;165.80;;;5.40;99.90;;;;;;4395164;32;20174;-64
2022/02/21 03:06:53;;;;;;;178.70;169.93;;;5.20;99.90;;;;;;4395463;32;20163;-65
2022/02/21 03:09:22;;;;;;;160.17;152.83;;;4.90;99.90;;;;;;4405777;32;20152;-66
2022/02/21 03:11:50;;;;;;;163.83;155.70;;;4.80;99.90;;;;;;4392589;32;20218;-66
2022/02/21 03:14:17;;;;;;;167.63;159.73;;;4.80;99.90;;;;;;4395190;32;20232;-66
2022/02/21 03:16:43;;;;;;;153.80;146.23;;;4.80;99.90;;;;;;4402671;32;20556;-65
2022/02/21 03:19:10;;;;;;;165.07;157.30;;;4.70;99.90;;;;;;4408262;32;20152;-65
2022/02/21 03:21:37;;;;;;;171.17;163.03;;;4.70;99.90;;;;;;4407739;32;20148;-65
2022/02/21 03:24:05;;;;;;;158.33;150.43;;;4.50;99.90;;;;;;4396363;32;20279;-65
2022/02/21 03:26:31;;;;;;;171.97;164.10;;;4.50;99.90;;;;;;4395518;32;20235;-66
2022/02/21 03:29:00;;;;;;;156.93;149.20;;;4.50;99.90;;;;;;4406027;32;20487;-65
2022/02/21 03:31:26;;;;;;;170.17;162.53;;;4.50;99.90;;;;;;4404459;32;20643;-67
2022/02/21 03:33:53;;;;;;;160.47;152.70;;;4.50;99.90;;;;;;4398046;32;20175;-67
2022/02/21 03:36:20;;;;;;;167.90;159.77;;;4.50;99.90;;;;;;4405020;32;20234;-68
2022/02/21 03:38:47;;;;;;;155.77;148.67;;;4.60;99.90;;;;;;4403303;32;20137;-66
2022/02/21 03:41:14;;;;;;;164.93;156.67;;;4.50;99.90;;;;;;4401793;32;20223;-66
2022/02/21 03:43:40;;;;;;;162.60;154.63;;;4.50;99.90;;;;;;4399967;32;20203;-64
2022/02/21 03:46:09;;;;;;;161.40;153.93;;;4.60;99.90;;;;;;4405775;32;20145;-65
2022/02/21 03:48:35;;;;;;;183.77;174.80;;;4.60;99.90;;;;;;4402902;32;20233;-61
2022/02/21 03:51:02;;;;;;;174.20;165.60;;;4.50;99.90;;;;;;4394310;32;20219;-66
2022/02/21 03:53:29;;;;;;;162.50;154.60;;;4.60;99.90;;;;;;4394353;32;20608;-64
2022/02/21 03:55:56;;;;;;;159.77;152.40;;;4.60;99.90;;;;;;4398080;32;20210;-65
2022/02/21 03:58:23;;;;;;;166.00;157.97;;;4.70;99.90;;;;;;4394756;32;20208;-63
2022/02/21 04:00:49;;;;;;;163.83;155.53;;;4.70;99.90;;;;;;4406604;32;20238;-65
2022/02/21 04:03:18;;;;;;;171.57;163.80;;;4.80;99.90;;;;;;4399959;32;20147;-65
2022/02/21 04:05:45;;;;;;;172.80;164.27;;;4.80;99.90;;;;;;4392827;32;20185;-65
2022/02/21 04:08:11;;;;;;;161.27;153.03;;;4.80;99.90;;;;;;4403667;32;20183;-64
2022/02/21 04:10:38;;;;;;;168.37;159.90;;;4.80;99.90;;;;;;4407509;32;20209;-65
2022/02/21 04:13:05;;;;;;;161.27;153.23;;;4.70;99.90;;;;;;4404900;32;20223;-67
2022/02/21 04:15:32;;;;;;;154.87;147.13;;;4.70;99.90;;;;;;4397741;32;20199;-65
2022/02/21 04:17:58;;;;;;;159.93;151.97;;;4.60;99.90;;;;;;4398816;32;20565;-67
2022/02/21 04:20:29;;;;;;;156.47;149.33;;;4.80;99.90;;;;;;4399903;32;20247;-67
2022/02/21 04:22:56;;;;;;;151.07;143.23;;;4.70;99.90;;;;;;4397902;32;20140;-68
2022/02/21 04:25:23;;;;;;;166.00;157.63;;;4.60;99.90;;;;;;4394379;32;20180;-65
2022/02/21 04:27:53;;;;;;;157.37;149.87;;;4.50;99.90;;;;;;4402848;32;20165;-65
2022/02/21 04:30:26;;;;;;;143.57;136.73;;;4.50;99.90;;;;;;4400134;32;20219;-66
2022/02/21 04:32:54;;;;;;;146.87;139.37;;;4.60;99.90;;;;;;4406476;32;20166;-64
2022/02/21 04:35:23;;;;;;;155.07;147.27;;;4.70;99.90;;;;;;4399441;32;20225;-64
2022/02/21 04:37:51;;;;;;;148.43;141.20;;;4.70;99.90;;;;;;4392828;32;20201;-66
2022/02/21 04:40:20;;;;;;;140.43;133.60;;;4.70;99.90;;;;;;4401295;32;20175;-66
2022/02/21 04:42:48;;;;;;;164.50;156.77;;;4.80;99.90;;;;;;4406620;32;20144;-67
2022/02/21 04:45:15;;;;;;;148.60;141.20;;;4.90;99.90;;;;;;4400205;32;20139;-67
2022/02/21 04:47:42;;;;;;;148.87;141.87;;;4.90;99.90;;;;;;4404249;32;20702;-66
2022/02/21 04:50:10;;;;;;;152.00;144.53;;;5.00;99.90;;;;;;4394122;32;20471;-65
2022/02/21 04:52:38;;;;;;;157.00;149.63;;;5.00;99.90;;;;;;4406395;32;20601;-64
2022/02/21 04:55:08;;;;;;;161.47;153.90;;;5.10;99.90;;;;;;4404495;32;20235;-64
2022/02/21 04:57:35;;;;;;;166.23;158.03;;;5.00;99.90;;;;;;4399774;32;20560;-63
2022/02/21 05:00:04;;;;;;;152.83;145.60;;;5.00;99.90;;;;;;4403384;32;20168;-65
2022/02/21 05:02:36;;;;;;;184.67;175.30;;;5.00;99.90;;;;;;4402988;32;20364;-65
2022/02/21 05:05:03;;;;;;;156.27;149.27;;;5.00;99.90;;;;;;4392719;32;20548;-64
2022/02/21 05:07:31;;;;;;;167.47;160.13;;;5.10;99.90;;;;;;4392678;32;20628;-65
2022/02/21 05:09:58;;;;;;;157.30;149.60;;;5.10;99.90;;;;;;4391292;32;20132;-64
2022/02/21 05:12:29;;;;;;;178.63;169.87;;;5.10;99.90;;;;;;4391023;32;20193;-67
2022/02/21 05:14:56;;;;;;;142.03;134.87;;;5.10;99.90;;;;;;4395218;32;20141;-65
2022/02/21 05:17:25;;;;;;;166.37;158.33;;;5.10;99.90;;;;;;4394920;32;20313;-66
2022/02/21 05:19:52;;;;;;;169.27;161.43;;;4.90;99.90;;;;;;4392196;32;20152;-65
2022/02/21 05:22:20;;;;;;;177.13;168.83;;;4.80;99.90;;;;;;4391185;32;20211;-65
2022/02/21 05:24:47;;;;;;;166.50;158.50;;;4.80;99.90;;;;;;4405422;32;20147;-65
2022/02/21 05:27:17;;;;;;;166.27;159.07;;;4.70;99.90;;;;;;4398987;32;20141;-65
2022/02/21 05:29:45;;;;;;;149.77;142.13;;;4.60;99.90;;;;;;4400834;32;20136;-62
2022/02/21 05:32:12;;;;;;;157.50;149.93;;;4.40;99.90;;;;;;4401844;32;20176;-67
2022/02/21 05:34:39;;;;;;;175.27;166.73;;;4.50;99.90;;;;;;4406369;32;20155;-63
2022/02/21 05:37:06;;;;;;;149.30;141.57;;;4.50;99.90;;;;;;4396964;32;20144;-64
2022/02/21 05:39:34;;;;;;;155.27;147.40;;;4.50;99.90;;;;;;4390007;32;20223;-65
2022/02/21 05:42:01;;;;;;;151.87;143.77;;;4.40;99.90;;;;;;4390804;32;20227;-67
2022/02/21 05:44:27;;;;;;;139.70;132.93;;;4.40;99.90;;;;;;4390870;32;20215;-64
2022/02/21 05:46:55;;;;;;;151.17;143.83;;;4.40;99.90;;;;;;4398536;32;20167;-65
2022/02/21 05:49:32;;;;;;;158.40;150.87;;;4.40;99.90;;;;;;4391986;32;20231;-67
2022/02/21 05:51:59;;;;;;;170.83;163.03;;;4.60;99.90;;;;;;4395784;32;20160;-67
2022/02/21 05:54:30;;;;;;;162.40;154.73;;;4.60;99.90;;;;;;4390398;32;20217;-66
2022/02/21 05:56:57;;;;;;;173.13;165.10;;;4.50;99.90;;;;;;4390478;32;20666;-64
2022/02/21 05:59:25;;;;;;;166.27;157.30;;;4.50;99.90;;;;;;4393105;32;20295;-66
2022/02/21 06:01:52;;;;;;;179.87;171.20;;;4.50;99.90;;;;;;4389846;32;20585;-68
2022/02/21 06:04:20;;;;;;;156.30;148.93;;;4.40;99.90;;;;;;4391238;32;20227;-65
2022/02/21 06:06:47;;;;;;;163.60;155.97;;;4.40;99.90;;;;;;4391686;32;20145;-65
2022/02/21 06:09:13;;;;;;;161.00;152.47;;;4.40;99.90;;;;;;4406054;32;20230;-66
2022/02/21 06:11:42;;;;;;;151.03;144.03;;;4.30;99.90;;;;;;4402792;32;20136;-68
2022/02/21 06:14:09;;;;;;;169.13;160.70;;;4.40;99.90;;;;;;4394333;32;20226;-67
2022/02/21 06:16:39;;;;;;;171.37;163.30;;;4.50;99.90;;;;;;4393847;32;20136;-67
2022/02/21 06:19:06;;;;;;;169.47;160.93;;;4.60;99.90;;;;;;4393784;32;20159;-65
2022/02/21 06:21:37;;;;;;;176.73;168.10;;;4.60;99.90;;;;;;4391942;32;20167;-65
2022/02/21 06:24:05;;;;;;;164.97;157.20;;;4.70;99.90;;;;;;4395040;32;20140;-65
2022/02/21 06:26:32;;;;;;;165.80;158.27;;;4.70;99.90;;;;;;4396317;32;20231;-66
2022/02/21 06:28:58;;;;;;;178.87;169.70;;;4.90;99.90;;;;;;4392525;32;20158;-65
2022/02/21 06:31:25;;;;;;;162.83;154.20;;;5.00;99.90;;;;;;4392731;32;20193;-65
2022/02/21 06:33:52;;;;;;;168.17;159.47;;;5.10;99.90;;;;;;4393495;32;20633;-65
2022/02/21 06:36:19;;;;;;;170.17;161.90;;;5.10;99.90;;;;;;4392012;32;20159;-65
2022/02/21 06:38:47;;;;;;;156.17;148.37;;;5.10;99.90;;;;;;4392309;32;20211;-66
2022/02/21 06:41:15;;;;;;;170.53;161.93;;;5.20;99.90;;;;;;4392602;32;20503;-67
2022/02/21 06:43:42;;;;;;;198.93;189.73;;;5.30;99.90;;;;;;4392062;32;20201;-65
2022/02/21 06:46:09;;;;;;;170.33;161.83;;;5.20;99.90;;;;;;4398152;32;20867;-66
2022/02/21 06:48:35;;;;;;;168.17;160.63;;;5.10;99.90;;;;;;4397571;32;20159;-67
2022/02/21 06:51:02;;;;;;;174.33;166.20;;;5.00;99.90;;;;;;4393063;32;20174;-65
2022/02/21 06:53:31;;;;;;;170.50;162.93;;;5.00;99.90;;;;;;4396067;32;20151;-67
2022/02/21 06:55:59;;;;;;;173.63;165.13;;;5.10;99.90;;;;;;4394162;32;20172;-67
2022/02/21 06:58:25;;;;;;;175.37;167.40;;;5.10;99.90;;;;;;4395089;32;20143;-68
2022/02/21 07:00:52;;;;;;;184.13;175.47;;;5.10;99.90;;;;;;4393637;32;21869;-67
2022/02/21 07:03:21;;;;;;;180.47;171.37;;;5.10;99.90;;;;;;4393563;32;20182;-66
2022/02/21 07:05:48;;;;;;;177.77;169.67;;;5.00;99.90;;;;;;4395613;32;20549;-65
2022/02/21 07:08:15;;;;;;;184.90;176.07;;;5.00;99.90;;;;;;4395095;32;20229;-66
2022/02/21 07:10:45;;;;;;;185.97;176.40;;;4.90;99.90;;;;;;4396186;32;20187;-65
2022/02/21 07:13:14;;;;;;;187.07;177.97;;;5.00;99.90;;;;;;4393843;32;20262;-66
2022/02/21 07:15:40;;;;;;;186.30;177.47;;;5.10;99.90;;;;;;4388764;32;20187;-65
2022/02/21 07:18:10;;;;;;;175.40;167.00;;;5.30;99.90;;;;;;4394842;32;20171;-67
2022/02/21 07:20:37;;;;;;;170.73;162.33;;;5.40;99.90;;;;;;4394210;32;20228;-66
2022/02/21 07:23:04;;;;;;;168.93;161.23;;;5.30;99.90;;;;;;4392470;32;20512;-66
2022/02/21 07:25:31;;;;;;;181.13;172.50;;;5.40;99.90;;;;;;4395888;32;20727;-65
2022/02/21 07:28:00;;;;;;;182.90;173.47;;;5.30;99.90;;;;;;4394750;32;20448;-65
2022/02/21 07:30:30;;;;;;;191.00;181.93;;;5.40;99.90;;;;;;4394463;32;20148;-65
2022/02/21 07:32:57;;;;;;;188.20;179.43;;;5.40;99.90;;;;;;4394525;32;20162;-65
2022/02/21 07:35:24;;;;;;;187.77;178.27;;;5.50;99.90;;;;;;4396172;32;20187;-65
2022/02/21 07:37:51;;;;;;;177.07;168.53;;;5.60;99.90;;;;;;4398300;32;20231;-65
2022/02/21 07:40:18;;;;;;;186.67;177.67;;;5.80;99.90;;;;;;4395479;32;20236;-68
2022/02/21 07:42:49;;;;;;;200.07;190.67;;;5.90;99.90;;;;;;4403454;32;20239;-65
2022/02/21 07:45:19;;;;;;;203.03;193.30;;;6.00;99.90;;;;;;4404215;32;20174;-67
2022/02/21 07:47:48;;;;;;;189.23;179.57;;;6.30;99.90;;;;;;4398466;32;20141;-69
2022/02/21 07:50:16;;;;;;;209.80;199.53;;;6.50;99.90;;;;;;4392926;32;20148;-68
2022/02/21 07:52:44;;;;;;;187.90;178.17;;;6.70;99.90;;;;;;4395399;32;20215;-65
2022/02/21 07:55:11;;;;;;;198.90;188.93;;;6.70;99.90;;;;;;4399518;32;20551;-67
2022/02/21 07:57:41;;;;;;;200.07;191.00;;;6.50;99.90;;;;;;4400932;32;20186;-66
2022/02/21 08:00:09;;;;;;;211.70;201.63;;;6.30;99.90;;;;;;4395258;32;20203;-65
2022/02/21 08:02:36;;;;;;;207.73;198.13;;;6.20;99.90;;;;;;4398115;32;20230;-64
2022/02/21 08:05:05;;;;;;;213.57;204.17;;;6.20;99.90;;;;;;4400111;32;20202;-65
2022/02/21 08:07:32;;;;;;;194.90;185.87;;;6.20;99.90;;;;;;4396398;32;20171;-65
2022/02/21 08:09:59;;;;;;;224.87;213.90;;;6.10;99.90;;;;;;4399052;32;20238;-65
2022/02/21 08:12:26;;;;;;;204.90;195.57;;;6.10;99.90;;;;;;4398308;32;20144;-65
2022/02/21 08:14:53;;;;;;;209.93;200.80;;;6.20;99.90;;;;;;4398322;32;20593;-66
2022/02/21 08:17:20;;;;;;;208.90;199.17;;;6.10;99.90;;;;;;4398842;32;20148;-65
2022/02/21 08:19:47;;;;;;;209.57;200.03;;;5.90;99.90;;;;;;4397633;32;20245;-66
2022/02/21 08:22:15;;;;;;;208.67;199.53;;;5.70;99.90;;;;;;4399454;32;20238;-67
2022/02/21 08:24:42;;;;;;;201.00;191.50;;;5.40;99.90;;;;;;4396856;32;20146;-64
2022/02/21 08:27:10;;;;;;;201.17;191.03;;;5.20;99.90;;;;;;4400046;32;20207;-64
2022/02/21 08:29:37;;;;;;;204.37;195.07;;;4.90;99.90;;;;;;4401422;32;20234;-64
2022/02/21 08:32:05;;;;;;;183.47;174.40;;;4.70;99.90;;;;;;4395940;32;20167;-64
2022/02/21 08:34:33;;;;;;;163.93;156.07;;;4.60;99.90;;;;;;4392474;32;20576;-65
2022/02/21 08:36:59;;;;;;;169.63;161.77;;;4.60;99.90;;;;;;4395317;32;20437;-63
2022/02/21 08:39:28;;;;;;;154.83;146.87;;;4.50;99.90;;;;;;4399475;32;20148;-64
2022/02/21 08:41:55;;;;;;;158.97;150.83;;;4.50;99.90;;;;;;4395747;32;20540;-64
2022/02/21 08:44:22;;;;;;;163.50;155.43;;;4.50;99.90;;;;;;4394601;32;20172;-64
2022/02/21 08:46:49;;;;;;;157.20;149.33;;;4.50;99.90;;;;;;4395163;32;20223;-64
2022/02/21 08:49:16;;;;;;;157.20;149.47;;;4.40;99.90;;;;;;4399439;32;20153;-65
2022/02/21 08:51:44;;;;;;;145.30;137.33;;;4.40;99.90;;;;;;4395649;32;20191;-65
2022/02/21 08:54:11;;;;;;;150.67;142.60;;;4.40;99.90;;;;;;4393793;32;20147;-65
2022/02/21 08:56:39;;;;;;;145.90;138.43;;;4.30;99.90;;;;;;4395819;32;20201;-63
2022/02/21 08:59:06;;;;;;;152.10;144.73;;;4.40;99.90;;;;;;4395715;32;20191;-65
2022/02/21 09:01:33;;;;;;;149.27;141.57;;;4.30;99.90;;;;;;4393781;32;20264;-65
2022/02/21 09:04:00;;;;;;;163.87;154.93;;;4.30;99.90;;;;;;4392793;32;20143;-65
2022/02/21 09:06:26;;;;;;;158.23;149.33;;;4.30;99.90;;;;;;4395669;32;20510;-64
2022/02/21 09:08:53;;;;;;;162.63;153.73;;;4.30;99.90;;;;;;4395695;32;20282;-65
2022/02/21 09:11:20;;;;;;;168.87;159.90;;;4.30;99.90;;;;;;4390005;32;20163;-65
2022/02/21 09:13:50;;;;;;;167.73;159.27;;;4.30;99.90;;;;;;4392067;32;20153;-65
2022/02/21 09:16:17;;;;;;;163.27;154.87;;;4.30;99.90;;;;;;4398088;32;20162;-66
2022/02/21 09:18:44;;;;;;;167.70;158.83;;;4.30;99.90;;;;;;4396139;32;20162;-64
2022/02/21 09:21:11;;;;;;;168.73;159.70;;;4.20;99.90;;;;;;4396435;32;20155;-65
2022/02/21 09:23:38;;;;;;;168.57;159.00;;;4.20;99.90;;;;;;4395590;32;20152;-63
2022/02/21 09:26:05;;;;;;;166.77;158.23;;;4.20;99.90;;;;;;4393751;32;20231;-63
2022/02/21 09:28:32;;;;;;;176.17;166.43;;;4.20;99.90;;;;;;4390721;32;20222;-64
2022/02/21 09:31:00;;;;;;;169.13;159.43;;;4.20;99.90;;;;;;4392649;32;20140;-63
2022/02/21 09:33:32;;;;;;;167.63;159.30;;;4.20;99.90;;;;;;4386143;32;20186;-64
2022/02/21 09:36:00;;;;;;;177.77;168.13;;;4.30;99.90;;;;;;4387328;32;20179;-63
2022/02/21 09:38:36;;;;;;;179.50;170.13;;;4.30;99.90;;;;;;4389047;32;20482;-64
2022/02/21 09:41:04;;;;;;;178.03;169.23;;;4.30;99.90;;;;;;4392471;32;20178;-64
2022/02/21 09:43:31;;;;;;;169.87;160.70;;;4.30;99.90;;;;;;4395178;32;20144;-64
2022/02/21 09:46:01;;;;;;;181.97;171.40;;;4.30;99.90;;;;;;4379359;32;20188;-65
2022/02/21 09:48:28;;;;;;;181.67;172.63;;;4.30;99.90;;;;;;4395204;32;20148;-65
2022/02/21 09:50:59;;;;;;;190.70;181.07;;;4.30;99.90;;;;;;4396423;32;20182;-63
2022/02/21 09:53:28;;;;;;;188.67;178.80;;;4.30;99.90;;;;;;4398753;32;20187;-65
2022/02/21 09:55:55;;;;;;;195.00;183.80;;;4.40;99.90;;;;;;4395659;32;20220;-63
2022/02/21 09:58:22;;;;;;;193.20;182.60;;;4.40;99.90;;;;;;4397862;32;20157;-66
2022/02/21 10:00:50;;;;;;;194.70;184.77;;;4.40;99.90;;;;;;4400695;32;20169;-62
2022/02/21 10:03:40;;;;;;;209.63;198.63;;;4.50;99.90;;;;;;4392648;32;20225;-60
2022/02/21 10:06:16;;;;;;;200.30;188.77;;;4.50;99.90;;;;;;4394635;32;20201;-65
2022/02/21 10:09:00;;;;;;;193.13;183.17;;;4.50;99.90;;;;;;4397939;32;20245;-64
2022/02/21 10:11:29;;;;;;;198.90;188.03;;;4.50;99.90;;;;;;4394856;32;20159;-64
2022/02/21 10:14:00;;;;;;;211.77;200.73;;;4.60;99.90;;;;;;4393145;32;20493;-65
2022/02/21 10:16:38;;;;;;;215.73;204.30;;;4.60;99.90;;;;;;4398720;32;20189;-65
2022/02/21 10:19:20;;;;;;;208.37;196.03;;;4.60;99.90;;;;;;4297304;32;3201419;-65
2022/02/21 10:21:57;;;;;;;206.23;195.53;;;4.60;99.90;;;;;;4395746;32;20522;-63
2022/02/21 10:24:24;;;;;;;226.37;213.20;;;4.70;99.90;;;;;;4394757;32;20178;-66
2022/02/21 10:26:51;;;;;;;219.00;206.77;;;4.70;99.90;;;;;;4395304;32;20175;-62
2022/02/21 10:29:20;;;;;;;240.70;227.53;;;4.80;99.90;;;;;;4396650;32;20187;-65
2022/02/21 10:31:47;;;;;;;236.50;223.67;;;4.80;99.90;;;;;;4396319;32;20164;-65
2022/02/21 10:34:16;;;;;;;246.40;233.17;;;4.90;99.90;;;;;;4396545;32;20167;-65
2022/02/21 10:36:44;;;;;;;240.50;227.83;;;5.00;99.90;;;;;;4396125;32;20674;-64
2022/02/21 10:39:13;;;;;;;253.67;238.93;;;5.10;99.90;;;;;;4398669;32;20155;-63
2022/02/21 10:41:46;;;;;;;264.53;250.23;;;5.30;99.90;;;;;;4397926;32;20482;-63
2022/02/21 10:44:19;;;;;;;261.37;247.13;;;5.30;99.90;;;;;;4392103;32;20191;-64
2022/02/21 10:47:04;;;;;;;257.37;243.43;;;5.40;99.90;;;;;;4396630;32;20621;-66
2022/02/21 10:49:34;;;;;;;250.43;237.03;;;5.40;99.90;;;;;;4396545;32;20164;-63
2022/02/21 10:52:01;;;;;;;260.07;246.23;;;5.50;99.90;;;;;;4396367;32;20187;-66
2022/02/21 10:54:29;;;;;;;282.40;267.03;;;5.50;99.90;;;;;;4392917;32;20294;-66
2022/02/21 10:56:56;;;;;;;278.93;264.40;;;5.60;99.90;;;;;;4397467;32;20174;-65
2022/02/21 10:59:27;;;;;;;286.47;271.67;;;5.60;99.90;;;;;;4398152;32;20232;-67
2022/02/21 11:01:54;;;;;;;282.27;267.30;;;5.60;99.90;;;;;;4395240;32;20643;-65
2022/02/21 11:04:23;;;;;;;287.27;271.60;;;5.60;99.90;;;;;;4390473;32;20150;-64
2022/02/21 11:06:52;;;;;;;278.00;262.67;;;5.60;99.90;;;;;;4389774;32;20164;-67
2022/02/21 11:09:22;;;;;;;295.90;279.77;;;5.70;99.90;;;;;;4397555;32;20157;-64
2022/02/21 11:11:51;;;;;;;292.90;276.97;;;5.70;99.90;;;;;;4396415;32;20156;-64
2022/02/21 11:14:19;;;;;;;294.63;278.20;;;5.70;99.90;;;;;;4390881;32;20207;-66
2022/02/21 11:16:47;;;;;;;306.00;290.07;;;5.80;99.90;;;;;;4393780;32;20148;-63
2022/02/21 11:19:16;;;;;;;306.40;291.00;;;5.90;99.90;;;;;;4392864;32;20159;-66
2022/02/21 11:21:44;;;;;;;319.83;304.10;;;6.00;99.90;;;;;;4394479;32;20205;-65
2022/02/21 11:24:17;;;;;;;322.77;306.60;;;6.00;99.90;;;;;;4393145;32;20145;-65
2022/02/21 11:26:53;;;;;;;314.97;298.20;;;6.00;99.90;;;;;;4393005;32;20163;-64
2022/02/21 11:29:27;;;;;;;320.27;303.00;;;6.00;99.90;;;;;;4392847;32;20144;-62
2022/02/21 11:31:54;;;;;;;334.43;318.03;;;6.10;99.90;;;;;;4394140;32;20219;-63
2022/02/21 11:34:21;;;;;;;312.70;296.80;;;6.10;99.90;;;;;;4392583;32;20438;-66
2022/02/21 11:36:57;;;;;;;314.53;298.73;;;6.20;99.90;;;;;;4392726;32;20167;-67
2022/02/21 11:39:28;;;;;;;329.73;314.03;;;6.30;99.90;;;;;;4392603;32;20153;-66
2022/02/21 11:42:07;;;;;;;332.37;313.83;;;6.40;99.90;;;;;;4394351;32;20197;-63
2022/02/21 11:44:53;;;;;;;324.60;308.97;;;6.50;99.90;;;;;;4392480;32;20183;-63
2022/02/21 11:47:38;;;;;;;327.90;312.27;;;6.60;99.90;;;;;;4392955;32;20171;-64
2022/02/21 11:50:08;;;;;;;345.30;327.63;;;6.70;99.90;;;;;;4392735;32;20184;-62
2022/02/21 11:52:38;;;;;;;355.13;337.37;;;6.80;99.90;;;;;;4401895;32;20151;-63
2022/02/21 11:55:36;;;;;;;356.83;338.77;;;6.90;99.90;;;;;;4407531;32;20152;-68
2022/02/21 11:58:35;;;;;;;347.13;329.87;;;7.00;99.90;;;;;;4402401;32;20191;-65
2022/02/21 12:01:14;;;;;;;358.30;340.97;;;7.10;99.90;;;;;;4393450;32;20164;-62
2022/02/21 12:03:40;;;;;;;353.00;335.77;;;7.20;99.90;;;;;;4392647;32;20148;-63
2022/02/21 12:06:29;;;;;;;380.50;360.73;;;7.20;99.90;;;;;;4392425;32;20511;-64
2022/02/21 12:09:02;;;;;;;341.13;324.27;;;7.20;99.90;;;;;;4393263;32;20185;-66
2022/02/21 12:11:30;;;;;;;373.07;353.80;;;7.20;99.90;;;;;;4397481;32;20166;-64
2022/02/21 12:14:18;;;;;;;400.37;379.97;;;7.20;99.90;;;;;;4399036;32;20183;-65
2022/02/21 12:17:06;;;;;;;385.63;365.43;;;7.30;99.90;;;;;;4397616;32;20164;-64
2022/02/21 12:19:38;;;;;;;388.47;369.93;;;7.40;99.90;;;;;;4396070;32;20191;-65
2022/02/21 12:22:17;;;;;;;373.07;354.63;;;7.50;99.90;;;;;;4397003;32;20164;-63
2022/02/21 12:25:13;;;;;;;393.20;374.10;;;7.60;99.90;;;;;;4398384;32;20607;-65
2022/02/21 12:28:13;;;;;;;385.87;365.40;;;7.70;99.90;;;;;;4396893;32;20172;-64